Sign in

Advertising

Sponsor

Info

Aviation weather - KDAB

METAR KDAB 132253Z 03013KT 10SM CLR 13/04 A3025 RMK AO2 SLP244 T01280044 $

Aviation weather from ADDS. Re-check weather before flight.

-